Time;durP1;ratioP1;P1;durP2;ratioP2;P2;SDS_P1;SDS_P2;PMS_P1;PMS_P2;Temp;Humidity;BMP_temperature;BMP_pressure;BME280_temperature;BME280_humidity;BME280_pressure;Samples;Min_cycle;Max_cycle;Signal;HPM_P1;HPM_P2
2022/09/10 00:00:53;;;;;;;2.67;0.50;;;;;;;15.02;100.00;98624.31;5086412;28;20366;-59
2022/09/10 00:03:37;;;;;;;0.98;0.40;;;;;;;14.90;100.00;98621.81;5091456;28;20051;-59
2022/09/10 00:06:26;;;;;;;1.00;0.40;;;;;;;14.98;100.00;98618.47;5089678;28;20406;-59
2022/09/10 00:09:11;;;;;;;1.15;0.50;;;;;;;14.85;100.00;98624.03;5091517;28;20458;-59
2022/09/10 00:11:56;;;;;;;2.35;0.63;;;;;;;14.84;100.00;98619.72;5088730;28;20469;-59
2022/09/10 00:14:41;;;;;;;1.77;0.57;;;;;;;14.92;100.00;98620.84;5087065;28;20052;-62
2022/09/10 00:17:27;;;;;;;1.00;0.55;;;;;;;15.05;100.00;98613.50;5090641;28;20066;-60
2022/09/10 00:20:12;;;;;;;1.67;0.60;;;;;;;15.08;100.00;98617.69;5083270;28;20068;-60
2022/09/10 00:22:57;;;;;;;1.98;0.60;;;;;;;14.89;100.00;98614.88;5084024;28;20106;-60
2022/09/10 00:25:41;;;;;;;2.78;0.82;;;;;;;14.82;100.00;98605.03;5090455;28;20039;-61
2022/09/10 00:28:27;;;;;;;1.02;0.70;;;;;;;15.02;100.00;98619.03;5090922;28;20092;-60
2022/09/10 00:31:12;;;;;;;2.25;0.88;;;;;;;14.93;100.00;98610.16;5069758;28;20036;-59
2022/09/10 00:33:58;;;;;;;1.60;0.80;;;;;;;14.90;100.00;98605.19;5090287;28;20084;-59
2022/09/10 00:36:43;;;;;;;1.40;0.80;;;;;;;14.93;100.00;98596.13;5086949;28;20042;-60
2022/09/10 00:39:27;;;;;;;1.88;0.75;;;;;;;15.00;100.00;98589.31;5082379;28;20072;-60
2022/09/10 00:42:12;;;;;;;2.08;0.80;;;;;;;14.99;100.00;98593.78;5089708;28;20052;-60
2022/09/10 00:44:59;;;;;;;1.55;0.60;;;;;;;14.88;100.00;98584.19;5082550;28;20412;-60
2022/09/10 00:47:46;;;;;;;2.35;0.80;;;;;;;14.89;100.00;98583.22;5083341;28;20047;-60
2022/09/10 00:50:36;;;;;;;1.05;0.60;;;;;;;14.97;100.00;98579.06;5087775;28;20673;-59
2022/09/10 00:53:25;;;;;;;3.20;0.80;;;;;;;15.08;100.00;98573.66;5089045;28;20127;-58
2022/09/10 00:56:10;;;;;;;1.08;0.60;;;;;;;15.05;100.00;98570.47;5090811;28;20127;-59
2022/09/10 00:58:55;;;;;;;1.00;0.70;;;;;;;15.10;100.00;98569.06;5083540;28;20090;-60
2022/09/10 01:01:39;;;;;;;3.38;0.68;;;;;;;15.16;100.00;98572.97;5085957;28;20028;-59
2022/09/10 01:04:26;;;;;;;0.98;0.60;;;;;;;14.96;100.00;98569.50;5089102;28;20101;-60
2022/09/10 01:07:12;;;;;;;2.00;0.52;;;;;;;15.00;100.00;98561.16;5062834;28;20395;-60
2022/09/10 01:10:00;;;;;;;1.92;0.50;;;;;;;14.98;100.00;98565.72;5087180;28;20074;-60
2022/09/10 01:12:44;;;;;;;1.00;0.40;;;;;;;14.92;100.00;98550.47;5074262;28;20067;-59
2022/09/10 01:15:51;;;;;;;1.38;0.40;;;;;;;14.76;100.00;98553.63;5082252;28;20044;-59
2022/09/10 01:19:13;;;;;;;1.17;0.35;;;;;;;14.76;100.00;98550.97;5086572;28;20590;-59
2022/09/10 01:22:06;;;;;;;2.30;0.50;;;;;;;14.83;100.00;98554.78;5087729;28;20063;-60
2022/09/10 01:24:56;;;;;;;0.63;0.32;;;;;;;15.00;100.00;98553.25;5067578;28;20143;-60
2022/09/10 01:27:46;;;;;;;0.40;0.20;;;;;;;14.85;100.00;98552.81;5073066;28;20507;-61
2022/09/10 01:30:39;;;;;;;0.98;0.30;;;;;;;14.77;100.00;98547.41;5071277;28;20043;-60
2022/09/10 01:33:33;;;;;;;0.52;0.22;;;;;;;14.89;100.00;98554.22;5072572;28;20066;-61
2022/09/10 01:36:23;;;;;;;1.08;0.30;;;;;;;15.54;100.00;98553.75;5087446;28;20123;-60
2022/09/10 01:39:07;;;;;;;0.45;0.30;;;;;;;15.81;100.00;98555.63;5090881;28;20127;-60
2022/09/10 01:41:55;;;;;;;0.40;0.20;;;;;;;15.98;100.00;98554.03;5090067;28;20060;-60
2022/09/10 01:44:50;;;;;;;1.05;0.20;;;;;;;15.50;100.00;98548.72;5081761;28;20458;-60
2022/09/10 01:48:08;;;;;;;2.25;0.32;;;;;;;14.95;100.00;98533.56;5081984;28;20119;-60
2022/09/10 01:51:08;;;;;;;1.48;0.17;;;;;;;15.03;100.00;98531.06;5097890;28;20406;-61
2022/09/10 01:53:54;;;;;;;0.45;0.20;;;;;;;15.47;100.00;98535.00;5087218;28;20120;-60
2022/09/10 01:57:01;;;;;;;1.67;0.30;;;;;;;15.43;100.00;98538.88;5089044;28;20063;-60
2022/09/10 01:59:56;;;;;;;0.32;0.20;;;;;;;15.41;100.00;98535.59;5087649;28;20097;-60
2022/09/10 02:03:02;;;;;;;1.35;0.60;;;;;;;15.22;100.00;98535.47;5080842;28;20561;-60
2022/09/10 02:05:52;;;;;;;0.65;0.30;;;;;;;15.11;100.00;98528.50;5085471;28;20528;-60
2022/09/10 02:08:40;;;;;;;0.60;0.40;;;;;;;15.43;100.00;98539.72;5089076;28;20040;-60
2022/09/10 02:11:25;;;;;;;2.60;0.40;;;;;;;15.42;100.00;98531.97;5082349;28;20123;-60
2022/09/10 02:14:13;;;;;;;1.23;0.40;;;;;;;15.07;100.00;98527.16;5081132;28;20122;-59
2022/09/10 02:17:19;;;;;;;1.35;0.50;;;;;;;14.97;100.00;98518.41;5088156;28;20197;-60
2022/09/10 02:20:08;;;;;;;1.55;0.45;;;;;;;15.08;100.00;98520.88;5087149;28;20040;-60
2022/09/10 02:22:57;;;;;;;0.82;0.40;;;;;;;15.24;100.00;98528.22;5089019;28;20491;-58
2022/09/10 02:25:42;;;;;;;3.83;0.68;;;;;;;15.32;100.00;98531.97;5100888;28;20032;-59
2022/09/10 02:28:27;;;;;;;1.00;0.40;;;;;;;15.61;100.00;98526.63;5087994;28;20080;-59
2022/09/10 02:31:12;;;;;;;0.57;0.28;;;;;;;15.33;100.00;98531.00;5089025;28;20036;-60
2022/09/10 02:33:57;;;;;;;0.38;0.30;;;;;;;14.81;100.00;98529.50;5082390;28;20435;-60
2022/09/10 02:36:45;;;;;;;0.82;0.40;;;;;;;14.86;100.00;98537.84;5087113;28;20044;-60
2022/09/10 02:39:31;;;;;;;1.05;0.52;;;;;;;14.93;100.00;98531.06;5088427;28;20066;-60
2022/09/10 02:42:16;;;;;;;2.08;0.35;;;;;;;14.63;100.00;98523.09;5081554;28;20062;-61
2022/09/10 02:45:04;;;;;;;1.25;0.30;;;;;;;14.63;100.00;98524.88;5091712;28;20498;-60
2022/09/10 02:47:49;;;;;;;0.40;0.30;;;;;;;14.56;100.00;98529.88;5091808;28;20039;-59
2022/09/10 02:50:34;;;;;;;1.25;0.30;;;;;;;14.66;100.00;98527.25;5089059;28;20127;-64
2022/09/10 02:53:21;;;;;;;0.70;0.50;;;;;;;14.48;100.00;98512.09;5086447;28;20032;-60
2022/09/10 02:56:09;;;;;;;0.73;0.43;;;;;;;14.37;100.00;98520.13;5087378;28;20463;-60
2022/09/10 02:58:54;;;;;;;1.83;0.95;;;;;;;14.45;100.00;98514.19;5090447;28;20056;-60
2022/09/10 03:01:42;;;;;;;1.52;0.73;;;;;;;14.36;100.00;98523.75;5071070;28;20056;-59
2022/09/10 03:04:27;;;;;;;1.08;0.60;;;;;;;14.53;100.00;98525.72;5089954;28;20040;-59
2022/09/10 03:07:15;;;;;;;0.88;0.50;;;;;;;14.97;100.00;98536.84;5088993;28;20090;-59
2022/09/10 03:10:02;;;;;;;0.70;0.50;;;;;;;15.10;100.00;98532.13;5092624;28;20044;-60
2022/09/10 03:12:47;;;;;;;1.77;0.40;;;;;;;15.03;100.00;98536.31;5081254;28;20069;-60
2022/09/10 03:15:31;;;;;;;1.20;0.80;;;;;;;14.88;100.00;98539.34;5090064;28;20368;-60
2022/09/10 03:18:17;;;;;;;2.05;0.80;;;;;;;14.66;100.00;98533.34;5087926;28;20035;-60
2022/09/10 03:21:11;;;;;;;1.60;0.60;;;;;;;14.55;100.00;98533.47;5093009;28;20101;-60
2022/09/10 03:23:56;;;;;;;1.23;0.77;;;;;;;14.52;100.00;98536.41;5090816;28;20036;-60
2022/09/10 03:26:44;;;;;;;2.42;0.70;;;;;;;14.91;100.00;98535.63;5090040;28;20404;-59
2022/09/10 03:29:30;;;;;;;0.93;0.70;;;;;;;14.82;100.00;98533.81;5093166;28;20063;-61
2022/09/10 03:32:16;;;;;;;1.30;0.70;;;;;;;14.56;100.00;98529.88;5088313;28;20040;-60
2022/09/10 03:35:01;;;;;;;1.83;0.70;;;;;;;14.61;100.00;98537.38;5091028;28;20072;-60
2022/09/10 03:37:46;;;;;;;1.45;0.90;;;;;;;14.96;100.00;98533.41;5090805;28;20032;-59
2022/09/10 03:40:31;;;;;;;1.05;0.73;;;;;;;14.88;100.00;98538.53;5090417;28;20083;-60
2022/09/10 03:43:17;;;;;;;1.83;0.60;;;;;;;14.86;100.00;98546.59;5092217;28;20377;-59
2022/09/10 03:46:04;;;;;;;1.50;0.43;;;;;;;15.42;100.00;98553.06;5082055;28;20522;-59
2022/09/10 03:48:49;;;;;;;1.25;0.43;;;;;;;15.26;100.00;98560.59;5090680;28;20335;-60
2022/09/10 03:51:37;;;;;;;0.95;0.70;;;;;;;15.03;100.00;98552.97;5090346;28;20355;-59
2022/09/10 03:54:23;;;;;;;1.10;0.65;;;;;;;15.15;100.00;98555.47;5091797;28;20051;-59
2022/09/10 03:57:09;;;;;;;2.28;0.63;;;;;;;15.11;100.00;98554.91;5088517;28;20058;-59
2022/09/10 03:59:53;;;;;;;1.52;0.70;;;;;;;14.74;100.00;98550.28;5089016;28;20035;-59
2022/09/10 04:02:40;;;;;;;1.70;0.70;;;;;;;15.08;100.00;98551.72;5090476;28;20420;-59
2022/09/10 04:05:27;;;;;;;1.05;0.50;;;;;;;15.29;100.00;98546.28;5084937;28;20154;-59
2022/09/10 04:08:13;;;;;;;2.35;0.93;;;;;;;15.13;100.00;98547.69;5090461;28;20410;-59
2022/09/10 04:11:03;;;;;;;1.63;0.90;;;;;;;14.92;100.00;98547.81;5087909;28;20438;-60
2022/09/10 04:13:47;;;;;;;1.85;0.88;;;;;;;14.70;100.00;98548.91;5088513;28;20129;-61
2022/09/10 04:16:32;;;;;;;1.50;1.00;;;;;;;14.84;100.00;98548.53;5088860;28;20048;-60
2022/09/10 04:19:17;;;;;;;2.13;0.90;;;;;;;15.05;100.00;98539.63;5075636;28;20173;-59
2022/09/10 04:22:01;;;;;;;1.25;0.75;;;;;;;15.37;100.00;98537.66;5076078;28;20075;-59
2022/09/10 04:24:48;;;;;;;2.53;1.45;;;;;;;14.87;100.00;98544.75;5069415;28;20131;-61
2022/09/10 04:27:33;;;;;;;1.45;0.88;;;;;;;14.96;100.00;98537.84;5073062;28;20243;-59
2022/09/10 04:30:18;;;;;;;2.17;1.52;;;;;;;14.99;100.00;98534.91;5080261;28;20817;-58
2022/09/10 04:33:03;;;;;;;3.75;1.77;;;;;;;14.89;100.00;98529.66;5088822;28;20429;-60
2022/09/10 04:35:50;;;;;;;4.25;2.85;;;;;;;15.08;100.00;98536.72;5070955;28;20041;-60
2022/09/10 04:38:38;;;;;;;4.82;2.13;;;;;;;15.20;100.00;98540.03;5084884;28;20048;-60
2022/09/10 04:41:24;;;;;;;3.65;2.38;;;;;;;15.10;100.00;98539.22;5070347;28;20135;-61
2022/09/10 04:44:10;;;;;;;3.58;2.70;;;;;;;15.33;100.00;98538.91;5069667;28;20059;-59
2022/09/10 04:46:55;;;;;;;5.38;2.70;;;;;;;15.67;100.00;98535.78;5080528;28;20044;-59
2022/09/10 04:49:40;;;;;;;6.43;2.95;;;;;;;14.58;100.00;98529.72;5100783;28;20046;-59
2022/09/10 04:52:25;;;;;;;4.03;2.80;;;;;;;14.19;100.00;98531.34;5090547;28;20051;-53
2022/09/10 04:55:10;;;;;;;6.55;2.80;;;;;;;14.12;100.00;98532.81;5090424;28;20047;-61
2022/09/10 04:57:55;;;;;;;4.45;2.90;;;;;;;14.37;100.00;98535.94;5079089;28;20048;-60
2022/09/10 05:00:40;;;;;;;5.85;2.97;;;;;;;14.31;100.00;98537.34;5089109;28;20040;-60
2022/09/10 05:03:25;;;;;;;3.70;2.53;;;;;;;14.56;100.00;98544.88;5075911;28;20376;-63
2022/09/10 05:06:12;;;;;;;6.13;2.58;;;;;;;14.78;100.00;98533.22;5087814;28;20058;-64
2022/09/10 05:08:57;;;;;;;3.65;2.92;;;;;;;14.40;100.00;98541.78;5087940;28;20601;-66
2022/09/10 05:11:45;;;;;;;5.18;3.08;;;;;;;14.40;100.00;98539.16;5089133;28;20024;-61
2022/09/10 05:14:30;;;;;;;4.28;3.03;;;;;;;14.06;100.00;98534.19;5056927;28;20130;-60
2022/09/10 05:17:17;;;;;;;4.75;2.90;;;;;;;13.99;100.00;98535.69;5088208;28;20043;-62
2022/09/10 05:20:05;;;;;;;4.93;2.35;;;;;;;14.13;100.00;98531.88;5102539;28;20123;-60
2022/09/10 05:22:53;;;;;;;5.03;2.67;;;;;;;14.12;100.00;98527.56;5098582;28;20089;-60
2022/09/10 05:25:38;;;;;;;5.05;2.42;;;;;;;14.23;100.00;98531.91;5080468;28;20735;-60
2022/09/10 05:28:24;;;;;;;6.13;2.88;;;;;;;14.27;100.00;98526.22;5090034;28;20123;-59
2022/09/10 05:31:11;;;;;;;3.95;2.38;;;;;;;14.27;100.00;98523.59;5084435;28;20127;-59
2022/09/10 05:33:59;;;;;;;3.88;2.53;;;;;;;14.32;100.00;98525.81;5080723;28;20052;-59
2022/09/10 05:36:44;;;;;;;4.47;2.13;;;;;;;14.44;100.00;98517.78;5075001;28;20124;-59
2022/09/10 05:39:30;;;;;;;3.83;2.45;;;;;;;14.99;100.00;98525.22;5082829;28;20407;-60
2022/09/10 05:42:15;;;;;;;4.10;2.50;;;;;;;15.30;100.00;98526.00;5088477;28;20103;-60
2022/09/10 05:45:01;;;;;;;2.58;2.13;;;;;;;14.88;100.00;98520.91;5088942;28;20115;-60
2022/09/10 05:47:46;;;;;;;4.03;2.20;;;;;;;14.78;100.00;98523.53;5089643;28;20063;-60
2022/09/10 05:50:37;;;;;;;3.92;2.28;;;;;;;14.92;100.00;98526.72;5090061;28;20051;-61
2022/09/10 05:53:23;;;;;;;4.03;2.08;;;;;;;15.33;99.77;98534.47;5088539;28;20047;-60
2022/09/10 05:56:08;;;;;;;3.03;1.73;;;;;;;15.59;97.88;98528.56;5087529;28;20044;-60
2022/09/10 05:58:53;;;;;;;4.35;1.98;;;;;;;15.56;97.06;98528.03;5082577;28;20460;-59
2022/09/10 06:01:38;;;;;;;3.15;2.28;;;;;;;15.47;97.45;98535.81;5081675;28;20036;-61
2022/09/10 06:04:24;;;;;;;3.05;1.77;;;;;;;15.88;95.75;98538.19;5086112;28;20043;-55
2022/09/10 06:07:10;;;;;;;2.35;1.80;;;;;;;15.73;96.73;98535.19;5086013;28;20443;-59
2022/09/10 06:09:59;;;;;;;4.80;1.95;;;;;;;15.74;96.17;98536.03;5087309;28;20407;-60
2022/09/10 06:12:53;;;;;;;3.30;2.28;;;;;;;15.51;97.70;98537.22;5086905;28;20142;-60
2022/09/10 06:15:41;;;;;;;2.35;1.60;;;;;;;15.70;96.18;98542.59;5076009;28;20051;-59
2022/09/10 06:18:27;;;;;;;3.33;1.88;;;;;;;15.64;96.49;98547.47;5061545;28;20052;-60
2022/09/10 06:21:14;;;;;;;5.20;4.32;;;;;;;16.03;97.43;98552.78;5076351;28;20032;-62
2022/09/10 06:24:00;;;;;;;3.03;2.00;;;;;;;15.96;93.90;98548.03;5090520;28;20479;-60
2022/09/10 06:26:49;;;;;;;3.65;2.35;;;;;;;15.68;94.96;98544.53;5085029;28;20108;-64
2022/09/10 06:29:35;;;;;;;4.55;2.17;;;;;;;15.68;95.30;98539.25;5091083;28;20060;-62
2022/09/10 06:32:21;;;;;;;5.53;2.83;;;;;;;15.41;96.42;98538.22;5091917;28;20772;-63
2022/09/10 06:35:08;;;;;;;4.72;2.80;;;;;;;15.58;96.05;98540.13;5078629;28;20043;-62
2022/09/10 06:37:57;;;;;;;4.65;2.70;;;;;;;15.51;97.04;98526.66;5092299;28;20051;-61
2022/09/10 06:40:53;;;;;;;3.95;2.70;;;;;;;15.39;98.34;98538.38;5092510;28;20081;-60
2022/09/10 06:43:40;;;;;;;5.65;3.33;;;;;;;15.06;99.57;98535.19;5071131;28;20392;-60
2022/09/10 06:46:32;;;;;;;4.57;2.90;;;;;;;15.06;99.94;98543.13;5092606;28;20036;-61
2022/09/10 06:49:30;;;;;;;5.10;2.97;;;;;;;14.96;100.00;98540.47;5089325;28;20111;-60
2022/09/10 06:52:15;;;;;;;5.95;3.10;;;;;;;14.95;99.61;98539.63;5094376;28;20703;-59
2022/09/10 06:55:01;;;;;;;4.13;2.50;;;;;;;14.96;99.50;98557.16;5092161;28;20040;-60
2022/09/10 06:57:54;;;;;;;5.07;2.83;;;;;;;14.99;99.65;98556.88;5093106;28;20032;-60
2022/09/10 07:00:40;;;;;;;3.45;2.47;;;;;;;15.76;95.32;98553.41;5103020;28;20047;-59
2022/09/10 07:03:24;;;;;;;5.75;2.50;;;;;;;15.68;93.52;98577.06;5092293;28;20063;-59
2022/09/10 07:06:12;;;;;;;2.38;1.92;;;;;;;15.91;92.24;98568.78;5089607;28;20048;-59
2022/09/10 07:08:57;;;;;;;3.65;2.20;;;;;;;16.55;88.37;98580.47;5091416;28;20032;-59
2022/09/10 07:11:44;;;;;;;4.25;1.98;;;;;;;17.10;84.84;98576.88;5092003;28;20496;-60
2022/09/10 07:14:32;;;;;;;3.80;2.20;;;;;;;17.49;83.13;98577.53;5092071;28;20396;-63
2022/09/10 07:17:19;;;;;;;3.92;2.00;;;;;;;17.42;83.28;98581.78;5092017;28;20627;-59
2022/09/10 07:20:05;;;;;;;5.28;2.08;;;;;;;18.08;80.32;98576.06;5106146;28;20489;-56
2022/09/10 07:22:59;;;;;;;4.65;2.38;;;;;;;18.29;80.34;98580.97;5092319;28;20178;-58
2022/09/10 07:25:46;;;;;;;3.90;2.63;;;;;;;17.89;81.24;98591.19;5091051;28;20387;-59
2022/09/10 07:28:52;;;;;;;5.75;3.22;;;;;;;17.01;86.37;98598.13;5084500;28;20064;-61
2022/09/10 07:31:40;;;;;;;8.07;3.28;;;;;;;17.18;87.08;98593.84;5077160;28;20029;-59
2022/09/10 07:34:30;;;;;;;6.78;3.78;;;;;;;16.59;90.80;98584.47;5077925;28;20040;-58
2022/09/10 07:37:15;;;;;;;12.80;4.03;;;;;;;16.62;92.03;98587.66;5085639;28;20419;-59
2022/09/10 07:40:00;;;;;;;3.80;3.10;;;;;;;16.53;93.59;98588.56;5073867;28;20763;-59
2022/09/10 07:42:45;;;;;;;10.82;3.67;;;;;;;17.03;91.11;98583.75;5092062;28;20450;-59
2022/09/10 07:45:29;;;;;;;6.53;3.80;;;;;;;17.85;85.52;98573.94;5090690;28;20039;-58
2022/09/10 07:48:16;;;;;;;6.63;3.40;;;;;;;17.93;85.76;98589.91;5089929;28;20109;-59
2022/09/10 07:51:05;;;;;;;6.35;3.47;;;;;;;18.44;80.83;98593.63;5084938;28;20063;-59
2022/09/10 07:53:55;;;;;;;4.68;2.70;;;;;;;19.33;80.57;98593.13;5077121;28;20074;-58
2022/09/10 07:56:41;;;;;;;5.65;3.10;;;;;;;19.81;74.43;98588.94;5087635;28;20040;-59
2022/09/10 07:59:28;;;;;;;5.75;2.42;;;;;;;19.21;78.25;98597.09;5090854;28;20059;-59
2022/09/10 08:02:19;;;;;;;3.58;2.40;;;;;;;19.70;74.19;98601.56;5090642;28;20040;-56
2022/09/10 08:05:12;;;;;;;3.83;2.22;;;;;;;19.05;75.22;98595.22;5089448;28;20036;-54
2022/09/10 08:07:58;;;;;;;3.10;2.22;;;;;;;18.55;77.87;98592.50;5075317;28;20032;-57
2022/09/10 08:10:45;;;;;;;5.38;2.70;;;;;;;19.16;74.78;98594.94;5090503;28;20364;-58
2022/09/10 08:13:31;;;;;;;3.65;1.90;;;;;;;19.99;72.01;98587.88;5085789;28;20044;-58
2022/09/10 08:16:24;;;;;;;4.18;1.70;;;;;;;20.98;67.53;98594.59;5086206;28;20050;-60
2022/09/10 08:19:12;;;;;;;3.25;1.90;;;;;;;21.30;65.39;98605.16;5087197;28;20040;-60
2022/09/10 08:21:57;;;;;;;3.10;1.50;;;;;;;21.25;63.85;98599.56;5061886;28;20044;-61
2022/09/10 08:24:48;;;;;;;1.90;1.42;;;;;;;20.94;63.93;98597.78;5087196;28;20038;-59
2022/09/10 08:27:34;;;;;;;2.40;1.38;;;;;;;21.93;61.47;98600.63;5087437;28;20048;-61
2022/09/10 08:30:21;;;;;;;1.45;1.20;;;;;;;21.49;61.25;98595.88;5086615;28;20107;-62
2022/09/10 08:33:06;;;;;;;6.45;1.25;;;;;;;22.33;59.21;98590.47;5087602;28;20139;-62
2022/09/10 08:35:56;;;;;;;3.05;1.30;;;;;;;22.28;58.21;98596.38;5072286;28;20068;-60
2022/09/10 08:38:43;;;;;;;1.88;1.13;;;;;;;22.09;58.53;98588.94;5087038;28;20117;-59
2022/09/10 08:41:37;;;;;;;2.53;1.40;;;;;;;21.72;59.57;98588.81;5078183;28;20044;-59
2022/09/10 08:44:37;;;;;;;2.03;0.93;;;;;;;22.54;57.45;98588.06;5086266;28;20048;-59
2022/09/10 08:47:47;;;;;;;2.92;1.10;;;;;;;22.52;56.82;98582.91;5087352;28;20123;-59
2022/09/10 08:51:14;;;;;;;2.20;0.85;;;;;;;22.28;58.38;98569.69;5085003;28;20161;-58
2022/09/10 08:54:10;;;;;;;2.25;1.00;;;;;;;22.87;57.00;98572.41;5085172;28;20044;-59
2022/09/10 08:56:59;;;;;;;2.53;1.33;;;;;;;22.99;55.83;98577.25;5084971;28;20067;-60
2022/09/10 08:59:47;;;;;;;3.17;1.10;;;;;;;22.55;57.69;98581.69;5070927;28;20044;-62
2022/09/10 09:02:44;;;;;;;3.30;0.70;;;;;;;22.90;56.38;98587.22;5083378;28;20444;-63
2022/09/10 09:05:36;;;;;;;3.20;1.10;;;;;;;23.18;55.35;98575.78;5097299;28;20048;-64
2022/09/10 09:08:27;;;;;;;3.72;0.75;;;;;;;24.43;52.97;98570.00;5084769;28;20136;-61
2022/09/10 09:11:25;;;;;;;2.03;0.70;;;;;;;24.68;50.81;98580.13;5083940;28;20063;-60
2022/09/10 09:14:12;;;;;;;2.28;0.77;;;;;;;24.02;50.67;98582.34;5085241;28;20048;-57
2022/09/10 09:17:33;;;;;;;2.50;0.65;;;;;;;23.61;51.16;98582.94;5084347;28;20044;-60
2022/09/10 09:20:45;;;;;;;1.40;0.60;;;;;;;23.61;51.09;98584.78;5018159;28;20056;-61
2022/09/10 09:23:57;;;;;;;0.75;0.45;;;;;;;24.22;50.53;98580.59;5024091;28;20052;-59
2022/09/10 09:26:48;;;;;;;1.83;0.60;;;;;;;24.38;48.50;98575.97;5030361;28;20060;-59
2022/09/10 09:29:42;;;;;;;2.10;0.70;;;;;;;23.86;50.50;98585.13;5006540;28;20071;-60
2022/09/10 09:32:33;;;;;;;3.00;0.75;;;;;;;24.05;50.43;98580.09;5033388;28;20527;-61
2022/09/10 09:35:24;;;;;;;;;;;;;;;25.04;48.14;98583.53;5024684;28;20124;-61
2022/09/10 09:38:51;;;;;;;1.23;0.68;;;;;;;23.71;51.09;98585.25;5045235;28;19987;-61
2022/09/10 09:42:14;;;;;;;1.13;0.73;;;;;;;25.92;46.17;98587.00;5011049;28;20544;-62
2022/09/10 09:45:15;;;;;;;1.10;0.55;;;;;;;25.89;45.87;98584.75;5027619;28;20061;-61
2022/09/10 09:47:59;;;;;;;0.82;0.57;;;;;;;24.99;47.73;98581.47;5001098;28;20180;-61
2022/09/10 09:50:49;;;;;;;2.20;0.60;;;;;;;24.42;49.54;98579.88;5008598;28;20661;-60
2022/09/10 09:53:34;;;;;;;1.73;0.88;;;;;;;23.20;52.50;98586.25;5032721;28;20507;-60
2022/09/10 09:56:30;;;;;;;1.08;0.50;;;;;;;22.27;54.97;98578.72;5031989;28;20075;-61
2022/09/10 09:59:26;;;;;;;1.05;0.73;;;;;;;22.74;54.06;98575.78;5047377;28;20079;-62
2022/09/10 10:02:16;;;;;;;2.30;0.80;;;;;;;22.15;55.60;98569.53;5046223;28;20495;-61
2022/09/10 10:05:05;;;;;;;1.10;0.60;;;;;;;22.85;54.63;98570.97;5031234;28;20765;-58
2022/09/10 10:07:51;;;;;;;1.10;0.40;;;;;;;22.72;54.75;98577.00;5009512;28;20703;-59
2022/09/10 10:10:36;;;;;;;1.48;0.70;;;;;;;22.65;55.32;98571.59;5047298;28;20056;-58
2022/09/10 10:13:21;;;;;;;1.88;0.65;;;;;;;22.88;54.92;98567.91;5048064;28;20044;-60
2022/09/10 10:16:21;;;;;;;2.03;0.65;;;;;;;22.66;55.01;98573.22;5082964;28;20505;-61
2022/09/10 10:19:27;;;;;;;0.82;0.47;;;;;;;22.97;53.76;98572.09;5083989;28;20116;-61
2022/09/10 10:22:12;;;;;;;1.90;0.80;;;;;;;23.91;52.60;98576.50;5090096;28;20127;-60
2022/09/10 10:24:59;;;;;;;3.03;0.85;;;;;;;23.71;52.06;98574.56;5089928;28;20040;-62
2022/09/10 10:27:46;;;;;;;2.13;0.60;;;;;;;23.18;54.04;98573.09;5089986;28;20151;-65
2022/09/10 10:30:31;;;;;;;1.92;0.77;;;;;;;24.06;50.77;98565.69;5087381;28;20036;-60
2022/09/10 10:33:18;;;;;;;3.30;0.65;;;;;;;23.63;52.73;98572.03;5083890;28;20055;-61
2022/09/10 10:36:25;;;;;;;1.63;0.60;;;;;;;24.35;48.66;98565.66;5090740;28;20040;-62
2022/09/10 10:39:35;;;;;;;1.05;0.52;;;;;;;25.79;46.08;98571.78;5089038;28;20115;-60
2022/09/10 10:42:34;;;;;;;1.42;0.40;;;;;;;24.26;46.70;98570.34;5088861;28;20133;-61
2022/09/10 10:45:37;;;;;;;1.48;0.28;;;;;;;23.40;49.29;98573.13;5085364;28;20096;-66
2022/09/10 10:48:34;;;;;;;1.05;0.30;;;;;;;23.89;48.57;98577.75;5089547;28;20052;-62
2022/09/10 10:51:46;;;;;;;4.25;0.65;;;;;;;24.17;46.69;98563.53;5084788;28;20177;-61
2022/09/10 10:54:58;;;;;;;3.13;0.28;;;;;;;24.29;45.83;98551.22;5086062;28;20040;-61
2022/09/10 10:57:55;;;;;;;0.68;0.20;;;;;;;24.88;44.03;98566.81;5088401;28;20446;-62
2022/09/10 11:00:48;;;;;;;1.73;0.22;;;;;;;25.02;43.73;98559.63;5087185;28;20478;-62
2022/09/10 11:03:36;;;;;;;0.20;0.13;;;;;;;25.26;42.89;98545.84;5088415;28;20036;-60
2022/09/10 11:06:25;;;;;;;2.00;0.10;;;;;;;26.42;41.01;98553.41;5075541;28;20169;-65
2022/09/10 11:09:22;;;;;;;3.80;0.30;;;;;;;26.76;40.02;98552.41;5091370;28;20337;-64
2022/09/10 11:12:17;;;;;;;0.77;0.10;;;;;;;26.55;41.45;98555.19;5090535;28;20032;-63
2022/09/10 11:15:13;;;;;;;1.17;0.30;;;;;;;26.78;40.94;98544.94;5092854;28;20059;-62
2022/09/10 11:18:26;;;;;;;0.68;0.30;;;;;;;26.81;41.54;98548.03;5092040;28;20043;-64
2022/09/10 11:21:58;;;;;;;1.63;0.50;;;;;;;24.87;43.68;98569.69;5090443;28;20040;-66
2022/09/10 11:24:53;;;;;;;1.88;0.30;;;;;;;24.80;43.74;98554.44;5031897;28;20048;-63
2022/09/10 11:27:45;;;;;;;1.38;0.25;;;;;;;23.80;44.97;98561.03;5046347;28;20506;-62
2022/09/10 11:30:32;;;;;;;0.60;0.30;;;;;;;23.95;46.39;98543.03;5037261;28;20041;-67
2022/09/10 11:33:38;;;;;;;1.08;0.40;;;;;;;23.86;47.06;98552.22;5044993;28;20163;-61
2022/09/10 11:36:44;;;;;;;4.20;0.40;;;;;;;23.43;48.63;98551.34;5048686;28;20053;-61
2022/09/10 11:39:33;;;;;;;0.82;0.50;;;;;;;24.20;46.45;98547.06;5046347;28;20045;-60
2022/09/10 11:42:32;;;;;;;3.05;0.57;;;;;;;24.36;45.88;98548.56;5049451;28;20040;-60
2022/09/10 11:45:35;;;;;;;1.88;0.43;;;;;;;24.84;44.44;98558.34;5047559;28;20037;-61
2022/09/10 11:48:19;;;;;;;1.15;0.32;;;;;;;25.08;43.99;98544.59;5046367;28;21227;-60
2022/09/10 11:51:14;;;;;;;1.10;0.40;;;;;;;24.42;45.00;98549.59;5045248;28;20048;-63
2022/09/10 11:54:02;;;;;;;0.90;0.43;;;;;;;24.92;44.66;98551.19;5035944;28;20083;-62
2022/09/10 11:56:58;;;;;;;0.88;0.40;;;;;;;23.96;47.06;98559.91;5093044;28;20032;-60
2022/09/10 12:00:08;;;;;;;1.05;0.40;;;;;;;23.22;48.94;98549.50;5091589;28;20481;-66
2022/09/10 12:03:16;;;;;;;2.78;0.60;;;;;;;22.80;50.46;98557.34;5092306;28;20046;-63
2022/09/10 12:06:09;;;;;;;1.73;0.65;;;;;;;21.60;51.76;98557.28;5092098;28;20059;-61
2022/09/10 12:09:00;;;;;;;1.20;0.38;;;;;;;21.85;51.26;98562.38;5092746;28;20467;-61
2022/09/10 12:12:05;;;;;;;1.48;0.22;;;;;;;21.80;50.05;98559.44;5092186;28;20149;-62
2022/09/10 12:14:50;;;;;;;1.75;0.28;;;;;;;21.62;50.80;98557.09;5089644;28;20432;-61
2022/09/10 12:17:40;;;;;;;0.88;0.40;;;;;;;21.18;52.08;98564.81;5091323;28;20490;-62
2022/09/10 12:20:31;;;;;;;1.17;0.50;;;;;;;21.12;53.08;98562.88;5087822;28;20471;-61
2022/09/10 12:23:21;;;;;;;3.20;0.40;;;;;;;20.82;54.26;98568.88;5092568;28;20036;-62
2022/09/10 12:26:14;;;;;;;1.98;0.50;;;;;;;21.05;54.17;98573.41;5091616;28;20441;-63
2022/09/10 12:29:01;;;;;;;2.20;0.38;;;;;;;21.76;52.63;98560.78;5088360;28;20067;-62
2022/09/10 12:32:14;;;;;;;0.95;0.40;;;;;;;21.50;53.72;98562.88;5091779;28;20418;-65
2022/09/10 12:35:41;;;;;;;1.00;0.38;;;;;;;23.00;50.78;98560.19;5086346;28;20535;-64
2022/09/10 12:39:15;;;;;;;1.75;0.38;;;;;;;23.06;50.00;98556.75;5033311;28;20109;-64
2022/09/10 12:42:27;;;;;;;1.25;0.40;;;;;;;21.76;52.34;98558.09;5046237;28;20036;-63
2022/09/10 12:45:11;;;;;;;0.70;0.40;;;;;;;21.41;53.19;98564.78;5047556;28;20132;-60
2022/09/10 12:47:56;;;;;;;0.68;0.40;;;;;;;21.62;52.46;98551.75;5049436;28;20097;-63
2022/09/10 12:50:52;;;;;;;0.30;0.20;;;;;;;22.39;50.71;98536.38;5044330;28;20063;-61
2022/09/10 12:54:05;;;;;;;1.83;0.35;;;;;;;22.06;51.89;98543.97;5036056;28;20547;-63
2022/09/10 12:57:26;;;;;;;1.42;0.30;;;;;;;22.47;51.23;98546.13;5047009;28;20041;-61
2022/09/10 13:00:21;;;;;;;0.47;0.20;;;;;;;22.00;53.23;98549.03;5047922;28;20369;-60
2022/09/10 13:03:06;;;;;;;0.93;0.40;;;;;;;22.34;51.11;98553.97;5048154;28;20061;-61
2022/09/10 13:05:54;;;;;;;1.50;0.43;;;;;;;21.36;53.79;98561.00;5033444;28;20048;-62
2022/09/10 13:08:42;;;;;;;1.67;0.30;;;;;;;20.75;56.57;98570.59;5035626;28;20109;-62
2022/09/10 13:11:31;;;;;;;0.93;0.20;;;;;;;20.13;58.20;98560.59;5034305;28;20123;-62
2022/09/10 13:14:31;;;;;;;0.52;0.17;;;;;;;19.99;58.93;98561.28;5076040;28;20451;-58
2022/09/10 13:17:35;;;;;;;1.67;0.30;;;;;;;19.81;58.44;98557.84;5090390;28;20036;-60
2022/09/10 13:20:20;;;;;;;0.47;0.10;;;;;;;19.36;59.69;98559.25;5087461;28;20111;-64